createdAt,value
2023-04-22T00:00:54.758Z,10.14
2023-04-22T00:03:24.711Z,9.97
2023-04-22T00:05:51.487Z,10.10
2023-04-22T00:08:18.002Z,9.92
2023-04-22T00:10:44.416Z,9.88
2023-04-22T00:13:10.823Z,9.81
2023-04-22T00:15:37.526Z,9.71
2023-04-22T00:18:04.213Z,9.84
2023-04-22T00:20:32.831Z,9.76
2023-04-22T00:22:59.259Z,9.56
2023-04-22T00:25:25.914Z,9.58
2023-04-22T00:27:52.280Z,9.54
2023-04-22T00:30:18.650Z,9.54
2023-04-22T00:32:45.055Z,9.57
2023-04-22T00:35:11.530Z,9.70
2023-04-22T00:37:37.922Z,9.85
2023-04-22T00:40:04.668Z,9.78
2023-04-22T00:42:31.349Z,9.65
2023-04-22T00:44:57.894Z,9.54
2023-04-22T00:47:26.963Z,9.62
2023-04-22T00:49:54.354Z,9.71
2023-04-22T00:52:20.752Z,9.57
2023-04-22T00:54:48.094Z,9.41
2023-04-22T00:57:14.642Z,9.28
2023-04-22T00:59:42.163Z,9.19
2023-04-22T01:02:08.797Z,9.16
2023-04-22T01:04:35.609Z,8.79
2023-04-22T01:07:02.070Z,9.06
2023-04-22T01:09:28.862Z,9.21
2023-04-22T01:11:56.175Z,9.27
2023-04-22T01:14:22.683Z,9.47
2023-04-22T01:16:50.444Z,9.63
2023-04-22T01:19:16.882Z,9.55
2023-04-22T01:21:45.000Z,9.76
2023-04-22T01:24:11.390Z,9.61
2023-04-22T01:26:38.038Z,9.31
2023-04-22T01:29:05.500Z,9.05
2023-04-22T01:31:32.028Z,9.12
2023-04-22T01:33:58.844Z,9.30
2023-04-22T01:36:25.617Z,9.34
2023-04-22T01:38:52.015Z,9.46
2023-04-22T01:41:18.684Z,9.39
2023-04-22T01:43:45.405Z,9.27
2023-04-22T01:46:11.788Z,9.44
2023-04-22T01:48:38.389Z,9.60
2023-04-22T01:51:05.357Z,9.46
2023-04-22T01:53:31.839Z,9.51
2023-04-22T01:55:58.299Z,9.45
2023-04-22T01:58:24.672Z,9.43
2023-04-22T02:00:51.068Z,9.43
2023-04-22T02:03:17.542Z,9.43
2023-04-22T02:05:44.002Z,9.47
2023-04-22T02:08:10.759Z,9.56
2023-04-22T02:10:37.252Z,9.65
2023-04-22T02:13:03.624Z,9.57
2023-04-22T02:15:30.471Z,9.59
2023-04-22T02:17:56.862Z,9.61
2023-04-22T02:20:23.304Z,9.58
2023-04-22T02:22:50.637Z,9.53
2023-04-22T02:25:17.044Z,9.58
2023-04-22T02:27:43.420Z,9.47
2023-04-22T02:30:09.997Z,9.46
2023-04-22T02:32:38.674Z,9.58
2023-04-22T02:35:05.418Z,9.58
2023-04-22T02:37:31.801Z,9.65
2023-04-22T02:39:58.168Z,9.64
2023-04-22T02:42:24.585Z,9.64
2023-04-22T02:44:50.946Z,9.49
2023-04-22T02:47:17.317Z,9.50
2023-04-22T02:49:43.681Z,9.53
2023-04-22T02:52:10.104Z,9.51
2023-04-22T02:54:36.474Z,9.49
2023-04-22T02:57:02.978Z,9.53
2023-04-22T02:59:30.790Z,9.55
2023-04-22T03:01:57.231Z,9.56
2023-04-22T03:04:25.733Z,9.59
2023-04-22T03:06:52.507Z,9.39
2023-04-22T03:09:18.916Z,9.27
2023-04-22T03:11:45.462Z,9.42
2023-04-22T03:14:11.835Z,9.37
2023-04-22T03:16:38.264Z,9.22
2023-04-22T03:19:04.722Z,9.20
2023-04-22T03:21:32.279Z,9.26
2023-04-22T03:23:59.019Z,9.41
2023-04-22T03:26:25.374Z,9.46
2023-04-22T03:28:51.757Z,9.31
2023-04-22T03:31:18.137Z,9.23
2023-04-22T03:33:44.507Z,8.97
2023-04-22T03:36:10.887Z,9.03
2023-04-22T03:38:37.255Z,9.32
2023-04-22T03:41:03.628Z,9.33
2023-04-22T03:43:30.021Z,9.40
2023-04-22T03:45:56.494Z,9.47
2023-04-22T03:48:22.908Z,9.55
2023-04-22T03:50:49.335Z,9.59
2023-04-22T03:53:15.719Z,9.57
2023-04-22T03:55:42.113Z,9.34
2023-04-22T03:58:08.488Z,9.53
2023-04-22T04:00:34.868Z,9.58
2023-04-22T04:03:01.389Z,9.64
2023-04-22T04:05:28.015Z,9.74
2023-04-22T04:07:54.579Z,9.78
2023-04-22T04:10:20.945Z,9.72
2023-04-22T04:12:47.344Z,9.71
2023-04-22T04:15:13.730Z,9.68
2023-04-22T04:17:40.182Z,9.71
2023-04-22T04:20:07.312Z,9.76
2023-04-22T04:22:34.955Z,9.77
2023-04-22T04:25:01.706Z,9.69
2023-04-22T04:27:28.065Z,9.65
2023-04-22T04:29:55.778Z,9.59
2023-04-22T04:32:22.600Z,9.68
2023-04-22T04:34:49.032Z,9.72
2023-04-22T04:37:16.723Z,9.92
2023-04-22T04:39:43.466Z,10.02
2023-04-22T04:42:09.860Z,9.97
2023-04-22T04:44:36.385Z,9.99
2023-04-22T04:47:04.052Z,10.05
2023-04-22T04:49:30.627Z,10.12
2023-04-22T04:52:01.754Z,10.13
2023-04-22T04:54:28.334Z,10.08
2023-04-22T04:56:54.747Z,9.91
2023-04-22T04:59:21.105Z,9.91
2023-04-22T05:01:47.565Z,10.01
2023-04-22T05:04:14.315Z,9.96
2023-04-22T05:06:40.875Z,10.03
2023-04-22T05:09:07.822Z,10.13
2023-04-22T05:11:34.245Z,10.15
2023-04-22T05:14:00.832Z,10.21
2023-04-22T05:16:27.283Z,10.19
2023-04-22T05:18:53.724Z,10.14
2023-04-22T05:21:20.357Z,10.23
2023-04-22T05:23:46.747Z,10.17
2023-04-22T05:26:13.103Z,10.25
2023-04-22T05:28:39.479Z,10.16
2023-04-22T05:31:06.796Z,10.16
2023-04-22T05:33:33.197Z,10.25
2023-04-22T05:35:59.584Z,10.13
2023-04-22T05:38:25.990Z,10.20
2023-04-22T05:40:52.367Z,10.33
2023-04-22T05:43:18.819Z,10.24
2023-04-22T05:45:45.232Z,10.12
2023-04-22T05:48:11.685Z,10.12
2023-04-22T05:50:38.138Z,9.94
2023-04-22T05:53:04.522Z,10.15
2023-04-22T05:55:31.029Z,10.24
2023-04-22T05:57:57.415Z,10.31
2023-04-22T06:00:23.775Z,10.46
2023-04-22T06:02:50.332Z,10.50
2023-04-22T06:05:16.893Z,10.55
2023-04-22T06:07:43.394Z,10.67
2023-04-22T06:10:10.230Z,10.81
2023-04-22T06:12:36.629Z,10.92
2023-04-22T06:15:03.968Z,11.06
2023-04-22T06:17:30.446Z,11.06
2023-04-22T06:19:56.863Z,11.20
2023-04-22T06:22:23.249Z,11.34
2023-04-22T06:24:49.610Z,11.40
2023-04-22T06:27:16.000Z,11.55
2023-04-22T06:29:43.450Z,11.56
2023-04-22T06:32:09.843Z,11.60
2023-04-22T06:34:38.508Z,11.78
2023-04-22T06:37:04.933Z,11.77
2023-04-22T06:39:31.315Z,11.81
2023-04-22T06:41:57.720Z,12.00
2023-04-22T06:44:25.392Z,11.91
2023-04-22T06:46:51.829Z,12.08
2023-04-22T06:49:18.269Z,12.08
2023-04-22T06:51:44.639Z,12.15
2023-04-22T06:54:11.025Z,12.41
2023-04-22T06:56:37.444Z,12.65
2023-04-22T06:59:03.847Z,12.73
2023-04-22T07:01:30.268Z,12.65
2023-04-22T07:03:56.816Z,12.85
2023-04-22T07:06:23.339Z,12.95
2023-04-22T07:08:49.804Z,13.11
2023-04-22T07:11:16.227Z,13.08
2023-04-22T07:13:42.605Z,12.91
2023-04-22T07:16:09.032Z,12.83
2023-04-22T07:18:36.016Z,13.12
2023-04-22T07:21:02.444Z,13.31
2023-04-22T07:23:28.846Z,13.44
2023-04-22T07:25:55.301Z,13.59
2023-04-22T07:28:21.717Z,13.70
2023-04-22T07:30:48.536Z,13.93
2023-04-22T07:33:14.908Z,14.17
2023-04-22T07:35:41.297Z,14.18
2023-04-22T07:38:09.283Z,14.11
2023-04-22T07:40:36.264Z,13.99
2023-04-22T07:43:02.684Z,14.31
2023-04-22T07:45:29.080Z,14.38
2023-04-22T07:47:55.737Z,14.50
2023-04-22T07:50:22.364Z,14.72
2023-04-22T07:52:48.749Z,14.89
2023-04-22T07:55:15.227Z,14.98
2023-04-22T07:57:41.677Z,15.47
2023-04-22T08:00:10.869Z,15.77
2023-04-22T08:02:37.416Z,16.03
2023-04-22T08:05:04.169Z,16.03
2023-04-22T08:07:33.555Z,16.31
2023-04-22T08:10:00.512Z,16.62
2023-04-22T08:12:26.927Z,16.87
2023-04-22T08:14:54.058Z,17.10
2023-04-22T08:17:21.915Z,17.36
2023-04-22T08:19:49.027Z,17.42
2023-04-22T08:22:16.095Z,17.38
2023-04-22T08:24:42.478Z,17.82
2023-04-22T08:27:08.872Z,18.35
2023-04-22T08:29:35.367Z,18.58
2023-04-22T08:32:03.024Z,18.44
2023-04-22T08:34:29.446Z,18.25
2023-04-22T08:36:55.837Z,18.03
2023-04-22T08:39:22.218Z,18.16
2023-04-22T08:41:50.465Z,18.27
2023-04-22T08:44:16.833Z,18.49
2023-04-22T08:46:47.004Z,18.55
2023-04-22T08:49:16.738Z,18.71
2023-04-22T08:51:44.341Z,19.00
2023-04-22T08:54:11.809Z,19.11
2023-04-22T08:56:42.355Z,18.97
2023-04-22T08:59:10.345Z,19.11
2023-04-22T09:01:38.387Z,19.37
2023-04-22T09:04:05.187Z,19.16
2023-04-22T09:06:32.798Z,19.31
2023-04-22T09:09:00.561Z,19.24
2023-04-22T09:11:28.298Z,19.17
2023-04-22T09:13:54.769Z,19.07
2023-04-22T09:16:21.257Z,19.33
2023-04-22T09:18:47.702Z,19.50
2023-04-22T09:21:14.150Z,19.58
2023-04-22T09:24:02.392Z,19.75
2023-04-22T09:26:28.786Z,19.72
2023-04-22T09:28:58.281Z,19.85
2023-04-22T09:31:25.539Z,19.81
2023-04-22T09:33:53.417Z,19.69
2023-04-22T09:36:28.253Z,19.74
2023-04-22T09:38:59.413Z,19.84
2023-04-22T09:41:29.273Z,20.05
2023-04-22T09:44:00.672Z,20.10
2023-04-22T09:46:28.717Z,20.32
2023-04-22T09:48:56.151Z,20.75
2023-04-22T09:51:22.841Z,21.06
2023-04-22T09:53:59.557Z,21.14
2023-04-22T09:56:49.280Z,20.77
2023-04-22T09:59:22.817Z,20.67
2023-04-22T10:01:50.613Z,20.69
2023-04-22T10:04:17.972Z,20.61
2023-04-22T10:06:44.386Z,20.61
2023-04-22T10:09:12.196Z,20.76
2023-04-22T10:11:40.524Z,21.25
2023-04-22T10:14:10.115Z,21.52
2023-04-22T10:16:38.573Z,21.58
2023-04-22T10:19:06.579Z,21.64
2023-04-22T10:21:33.524Z,21.64
2023-04-22T10:24:00.833Z,21.62
2023-04-22T10:26:43.663Z,21.86
2023-04-22T10:29:16.684Z,22.06
2023-04-22T10:31:44.909Z,22.41
2023-04-22T10:34:12.959Z,21.98
2023-04-22T10:37:01.947Z,21.46
2023-04-22T10:39:29.137Z,21.61
2023-04-22T10:42:11.073Z,21.47
2023-04-22T10:44:54.234Z,21.34
2023-04-22T10:47:29.114Z,21.47
2023-04-22T10:50:13.788Z,21.63
2023-04-22T10:52:41.583Z,21.99
2023-04-22T10:55:09.576Z,22.36
2023-04-22T10:57:41.653Z,23.04
2023-04-22T11:00:35.380Z,23.61
2023-04-22T11:03:05.226Z,23.92
2023-04-22T11:05:32.559Z,23.51
2023-04-22T11:08:04.165Z,23.71
2023-04-22T11:10:32.637Z,24.11
2023-04-22T11:13:01.306Z,23.76
2023-04-22T11:15:29.613Z,24.40
2023-04-22T11:17:56.363Z,24.60
2023-04-22T11:20:24.140Z,24.48
2023-04-22T11:22:55.430Z,25.02
2023-04-22T11:25:23.353Z,24.62
2023-04-22T11:27:49.811Z,24.57
2023-04-22T11:30:21.075Z,23.74
2023-04-22T11:32:52.293Z,23.45
2023-04-22T11:35:24.018Z,23.13
2023-04-22T11:38:01.210Z,23.25
2023-04-22T11:40:38.854Z,22.98
2023-04-22T11:43:08.279Z,22.61
2023-04-22T11:45:36.326Z,22.91
2023-04-22T11:48:05.155Z,23.54
2023-04-22T11:50:34.304Z,23.43
2023-04-22T11:53:12.521Z,22.87
2023-04-22T11:55:39.869Z,23.21
2023-04-22T11:58:09.628Z,23.32
2023-04-22T12:03:16.950Z,22.52
2023-04-22T12:05:45.114Z,22.00
2023-04-22T12:08:13.126Z,21.73
2023-04-22T12:10:46.618Z,21.50
2023-04-22T12:13:30.936Z,21.57
2023-04-22T12:15:59.259Z,21.80
2023-04-22T12:18:36.210Z,22.04
2023-04-22T12:21:13.180Z,21.81
2023-04-22T12:23:52.113Z,21.59
2023-04-22T12:26:20.791Z,21.78
2023-04-22T12:28:48.359Z,21.82
2023-04-22T12:31:15.408Z,22.30
2023-04-22T12:33:42.497Z,22.43
2023-04-22T12:36:09.409Z,22.90
2023-04-22T12:38:36.511Z,23.07
2023-04-22T12:41:04.246Z,23.44
2023-04-22T12:43:32.197Z,23.04
2023-04-22T12:45:58.996Z,22.31
2023-04-22T12:48:25.441Z,22.51
2023-04-22T12:50:51.819Z,22.70
2023-04-22T12:53:18.238Z,22.94
2023-04-22T12:55:46.100Z,22.78
2023-04-22T12:58:12.706Z,22.36
2023-04-22T13:00:39.075Z,22.23
2023-04-22T13:03:05.699Z,21.71
2023-04-22T13:05:32.404Z,21.48
2023-04-22T13:08:06.386Z,21.35
2023-04-22T13:10:33.605Z,21.48
2023-04-22T13:13:13.542Z,21.70
2023-04-22T13:15:43.133Z,21.80
2023-04-22T13:18:09.530Z,21.93
2023-04-22T13:20:36.052Z,21.41
2023-04-22T13:23:02.539Z,21.71
2023-04-22T13:25:28.939Z,21.59
2023-04-22T13:27:55.319Z,21.48
2023-04-22T13:30:21.692Z,21.68
2023-04-22T13:32:48.126Z,22.40
2023-04-22T13:35:14.592Z,22.71
2023-04-22T13:37:40.996Z,23.36
2023-04-22T13:40:08.248Z,25.25
2023-04-22T13:42:34.725Z,26.44
2023-04-22T13:45:01.149Z,27.96
2023-04-22T13:47:27.577Z,28.61
2023-04-22T13:49:53.982Z,26.32
2023-04-22T13:52:20.661Z,25.17
2023-04-22T13:54:47.076Z,24.92
2023-04-22T13:57:13.494Z,24.93
2023-04-22T13:59:41.693Z,24.49
2023-04-22T14:02:08.374Z,24.81
2023-04-22T14:04:34.850Z,23.88
2023-04-22T14:07:01.846Z,23.43
2023-04-22T14:09:28.224Z,23.48
2023-04-22T14:11:54.894Z,22.81
2023-04-22T14:14:21.283Z,22.36
2023-04-22T14:16:48.487Z,21.88
2023-04-22T14:19:14.960Z,21.85
2023-04-22T14:21:41.753Z,21.85
2023-04-22T14:24:08.140Z,21.80
2023-04-22T14:26:34.612Z,21.69
2023-04-22T14:29:01.049Z,21.42
2023-04-22T14:31:27.555Z,21.24
2023-04-22T14:33:54.084Z,21.04
2023-04-22T14:36:20.477Z,21.10
2023-04-22T14:38:46.982Z,21.08
2023-04-22T14:41:13.463Z,20.82
2023-04-22T14:43:39.916Z,20.65
2023-04-22T14:46:06.412Z,20.49
2023-04-22T14:48:35.264Z,20.39
2023-04-22T14:51:01.913Z,20.52
2023-04-22T14:53:28.403Z,20.22
2023-04-22T14:55:55.749Z,20.11
2023-04-22T14:58:22.768Z,19.83
2023-04-22T15:00:49.963Z,19.38
2023-04-22T15:03:16.531Z,18.50
2023-04-22T15:05:43.365Z,18.06
2023-04-22T15:08:09.783Z,17.14
2023-04-22T15:10:36.370Z,16.66
2023-04-22T15:13:02.789Z,16.57
2023-04-22T15:15:29.199Z,16.62
2023-04-22T15:17:55.643Z,16.82
2023-04-22T15:20:22.049Z,16.69
2023-04-22T15:22:48.819Z,16.77
2023-04-22T15:25:17.437Z,16.78
2023-04-22T15:27:44.528Z,16.83
2023-04-22T15:30:11.171Z,16.96
2023-04-22T15:32:39.039Z,17.02
2023-04-22T15:35:07.309Z,17.04
2023-04-22T15:37:33.748Z,17.09
2023-04-22T15:40:00.265Z,17.09
2023-04-22T15:42:26.686Z,16.98
2023-04-22T15:44:53.065Z,17.21
2023-04-22T15:47:19.568Z,17.20
2023-04-22T15:49:46.015Z,17.21
2023-04-22T15:52:12.461Z,17.36
2023-04-22T15:54:38.868Z,17.36
2023-04-22T15:57:05.284Z,17.58
2023-04-22T15:59:31.678Z,17.68
2023-04-22T16:01:58.135Z,17.76
2023-04-22T16:04:24.989Z,17.79
2023-04-22T16:06:51.673Z,17.81
2023-04-22T16:09:18.177Z,17.73
2023-04-22T16:11:44.568Z,17.63
2023-04-22T16:14:12.194Z,17.53
2023-04-22T16:16:39.883Z,17.64
2023-04-22T16:19:06.493Z,17.61
2023-04-22T16:21:32.852Z,17.57
2023-04-22T16:23:59.249Z,17.65
2023-04-22T16:26:25.688Z,17.65
2023-04-22T16:28:52.111Z,17.58
2023-04-22T16:31:22.676Z,17.58
2023-04-22T16:33:50.298Z,17.64
2023-04-22T16:36:16.720Z,17.61
2023-04-22T16:38:43.273Z,17.31
2023-04-22T16:41:11.392Z,17.59
2023-04-22T16:43:40.725Z,17.42
2023-04-22T16:46:07.631Z,17.47
2023-04-22T16:48:34.186Z,17.50
2023-04-22T16:51:00.618Z,17.31
2023-04-22T16:53:27.075Z,17.28
2023-04-22T16:55:53.441Z,17.40
2023-04-22T16:58:19.785Z,17.46
2023-04-22T17:00:47.754Z,17.59
2023-04-22T17:03:14.428Z,17.45
2023-04-22T17:05:40.975Z,17.50
2023-04-22T17:08:07.710Z,17.43
2023-04-22T17:10:34.734Z,17.35
2023-04-22T17:13:01.285Z,17.37
2023-04-22T17:15:27.681Z,17.18
2023-04-22T17:17:54.091Z,17.14
2023-04-22T17:20:20.547Z,17.20
2023-04-22T17:22:46.991Z,17.27
2023-04-22T17:25:13.364Z,17.26
2023-04-22T17:27:39.753Z,17.31
2023-04-22T17:30:06.776Z,17.21
2023-04-22T17:32:33.199Z,16.78
2023-04-22T17:34:59.679Z,16.73
2023-04-22T17:37:26.065Z,16.77
2023-04-22T17:39:52.679Z,16.68
2023-04-22T17:42:19.195Z,16.65
2023-04-22T17:44:45.698Z,16.77
2023-04-22T17:47:12.136Z,16.42
2023-04-22T17:49:38.937Z,16.50
2023-04-22T17:52:05.608Z,16.61
2023-04-22T17:54:32.022Z,16.61
2023-04-22T17:56:58.377Z,16.46
2023-04-22T17:59:24.772Z,16.36
2023-04-22T18:01:51.448Z,16.24
2023-04-22T18:04:18.056Z,16.14
2023-04-22T18:06:44.596Z,15.98
2023-04-22T18:09:11.404Z,15.89
2023-04-22T18:11:37.795Z,15.85
2023-04-22T18:14:04.205Z,15.86
2023-04-22T18:16:30.657Z,15.70
2023-04-22T18:18:58.946Z,15.68
2023-04-22T18:21:25.532Z,15.61
2023-04-22T18:23:53.060Z,15.49
2023-04-22T18:26:19.452Z,15.63
2023-04-22T18:28:45.870Z,15.38
2023-04-22T18:31:12.308Z,15.34
2023-04-22T18:33:38.687Z,15.37
2023-04-22T18:36:05.435Z,15.16
2023-04-22T18:38:31.887Z,15.23
2023-04-22T18:40:58.606Z,15.10
2023-04-22T18:43:24.992Z,15.07
2023-04-22T18:45:51.440Z,15.12
2023-04-22T18:48:19.122Z,15.14
2023-04-22T18:50:45.680Z,15.04
2023-04-22T18:53:12.161Z,15.14
2023-04-22T18:55:38.706Z,15.15
2023-04-22T18:58:05.172Z,15.14
2023-04-22T19:00:31.644Z,14.93
2023-04-22T19:02:58.158Z,14.86
2023-04-22T19:05:24.874Z,14.97
2023-04-22T19:07:51.852Z,14.82
2023-04-22T19:10:18.258Z,14.92
2023-04-22T19:12:44.622Z,15.00
2023-04-22T19:15:11.279Z,15.14
2023-04-22T19:17:38.547Z,15.33
2023-04-22T19:20:06.153Z,15.36
2023-04-22T19:22:32.559Z,15.44
2023-04-22T19:24:58.979Z,15.46
2023-04-22T19:27:25.678Z,15.42
2023-04-22T19:29:53.304Z,15.35
2023-04-22T19:32:20.991Z,15.41
2023-04-22T19:34:47.692Z,15.42
2023-04-22T19:37:14.166Z,15.47
2023-04-22T19:39:40.697Z,15.42
2023-04-22T19:42:07.231Z,15.39
2023-04-22T19:44:33.613Z,15.36
2023-04-22T19:47:00.833Z,15.35
2023-04-22T19:49:27.523Z,15.32
2023-04-22T19:51:54.595Z,15.36
2023-04-22T19:54:21.805Z,15.30
2023-04-22T19:56:48.977Z,15.31
2023-04-22T19:59:15.987Z,15.38
2023-04-22T20:01:42.575Z,15.25
2023-04-22T20:04:09.280Z,15.27
2023-04-22T20:06:35.929Z,15.27
2023-04-22T20:09:05.138Z,15.29
2023-04-22T20:11:32.336Z,15.26
2023-04-22T20:13:59.180Z,15.29
2023-04-22T20:16:26.868Z,15.31
2023-04-22T20:18:53.596Z,15.37
2023-04-22T20:21:20.061Z,15.40
2023-04-22T20:23:47.832Z,15.36
2023-04-22T20:26:18.584Z,15.41
2023-04-22T20:28:47.669Z,15.22
2023-04-22T20:31:16.497Z,15.16
2023-04-22T20:33:42.924Z,15.13
2023-04-22T20:36:09.814Z,15.08
2023-04-22T20:38:39.686Z,14.14
2023-04-22T20:41:06.999Z,13.99
2023-04-22T20:43:33.515Z,13.44
2023-04-22T20:45:59.994Z,13.19
2023-04-22T20:48:26.565Z,13.25
2023-04-22T20:50:52.925Z,13.18
2023-04-22T20:53:19.422Z,13.21
2023-04-22T20:55:45.992Z,13.24
2023-04-22T20:58:12.604Z,13.33
2023-04-22T21:00:38.942Z,13.32
2023-04-22T21:03:08.554Z,13.49
2023-04-22T21:05:42.250Z,13.47
2023-04-22T21:08:23.071Z,13.60
2023-04-22T21:10:51.047Z,13.74
2023-04-22T21:13:18.017Z,13.76
2023-04-22T21:15:55.667Z,13.68
2023-04-22T21:18:24.441Z,13.79
2023-04-22T21:20:51.696Z,13.78
2023-04-22T21:23:19.993Z,13.52
2023-04-22T21:25:48.476Z,13.70
2023-04-22T21:28:15.857Z,13.66
2023-04-22T21:30:42.473Z,13.81
2023-04-22T21:33:08.841Z,13.81
2023-04-22T21:35:35.546Z,13.33
2023-04-22T21:38:02.753Z,12.99
2023-04-22T21:40:29.146Z,13.08
2023-04-22T21:42:55.629Z,12.97
2023-04-22T21:45:21.997Z,12.94
2023-04-22T21:47:48.404Z,13.06
2023-04-22T21:50:14.824Z,13.17
2023-04-22T21:52:41.211Z,13.02
2023-04-22T21:55:07.942Z,13.06
2023-04-22T21:57:34.364Z,13.06
2023-04-22T22:00:01.074Z,13.23
2023-04-22T22:02:27.598Z,13.40
2023-04-22T22:04:54.157Z,13.26
2023-04-22T22:07:21.972Z,13.10
2023-04-22T22:09:48.343Z,13.09
2023-04-22T22:12:15.495Z,13.09
2023-04-22T22:14:43.381Z,12.71
2023-04-22T22:17:09.829Z,13.07
2023-04-22T22:19:36.329Z,12.59
2023-04-22T22:22:02.736Z,12.44
2023-04-22T22:24:29.121Z,12.45
2023-04-22T22:26:57.181Z,12.21
2023-04-22T22:29:23.549Z,12.70
2023-04-22T22:31:49.969Z,12.44
2023-04-22T22:34:16.350Z,12.22
2023-04-22T22:36:42.725Z,12.18
2023-04-22T22:39:11.783Z,12.19
2023-04-22T22:41:38.190Z,12.13
2023-04-22T22:44:04.584Z,12.42
2023-04-22T22:46:31.004Z,11.82
2023-04-22T22:48:59.095Z,11.95
2023-04-22T22:51:25.503Z,11.99
2023-04-22T22:53:51.961Z,11.68
2023-04-22T22:56:20.740Z,11.62
2023-04-22T22:58:48.148Z,11.72
2023-04-22T23:01:14.772Z,11.54
2023-04-22T23:03:41.415Z,11.44
2023-04-22T23:06:07.920Z,11.60
2023-04-22T23:08:34.290Z,11.51
2023-04-22T23:11:01.921Z,11.54
2023-04-22T23:13:28.299Z,11.52
2023-04-22T23:15:54.722Z,11.48
2023-04-22T23:18:21.240Z,11.59
2023-04-22T23:20:47.950Z,11.72
2023-04-22T23:23:18.313Z,11.78
2023-04-22T23:25:46.425Z,11.38
2023-04-22T23:28:13.169Z,11.26
2023-04-22T23:30:40.106Z,11.37
2023-04-22T23:33:07.597Z,11.54
2023-04-22T23:35:36.277Z,11.54
2023-04-22T23:38:03.988Z,11.35
2023-04-22T23:40:30.354Z,11.50
2023-04-22T23:42:56.713Z,11.06
2023-04-22T23:45:23.168Z,11.30
2023-04-22T23:47:49.810Z,11.23
2023-04-22T23:50:18.892Z,11.34
2023-04-22T23:52:45.324Z,11.47
2023-04-22T23:55:13.806Z,11.42
2023-04-22T23:57:40.452Z,11.34
